Time;durP1;ratioP1;P1;durP2;ratioP2;P2;SDS_P1;SDS_P2;PMS_P1;PMS_P2;Temp;Humidity;BMP_temperature;BMP_pressure;BME280_temperature;BME280_humidity;BME280_pressure;Samples;Min_cycle;Max_cycle;Signal;HPM_P1;HPM_P2
2023/07/09 00:02:13;;;;;;;;;;;;;;;;;;5082094;28;19930;-81
2023/07/09 00:04:39;;;;;;;;;;;;;;;;;;5088791;28;19927;-81
2023/07/09 00:07:05;;;;;;;;;;;;;;;;;;5090863;28;19924;-81
2023/07/09 00:09:31;;;;;;;;;;;;;;;;;;5083849;28;20011;-81
2023/07/09 00:11:57;;;;;;;;;;;;;;;;;;5052774;28;20370;-81
2023/07/09 00:14:23;;;;;;;;;;;;;;;;;;5069486;28;19994;-81
2023/07/09 00:16:49;;;;;;;;;;;;;;;;;;5052585;28;19928;-81
2023/07/09 00:19:16;;;;;;;;;;;;;;;;;;5069242;28;20066;-81
2023/07/09 00:21:42;;;;;;;;;;;;;;;;;;5069393;28;20007;-81
2023/07/09 00:24:10;;;;;;;;;;;;;;;;;;5070352;28;19970;-81
2023/07/09 00:26:38;;;;;;;;;;;;;;;;;;5048915;28;20019;-81
2023/07/09 00:29:03;;;;;;;;;;;;;;;;;;5049737;28;20015;-80
2023/07/09 00:31:29;;;;;;;;;;;;;;;;;;5049864;28;20425;-81
2023/07/09 00:33:55;;;;;;;;;;;;;;;;;;5058119;28;20361;-79
2023/07/09 00:36:22;;;;;;;;;;;;;;;;;;5063739;28;19990;-78
2023/07/09 00:38:48;;;;;;;;;;;;;;;;;;5049604;28;19920;-78
2023/07/09 00:41:17;;;;;;;;;;;;;;;;;;5052929;28;20026;-78
2023/07/09 00:43:43;;;;;;;;;;;;;;;;;;5052721;28;19927;-78
2023/07/09 00:46:09;;;;;;;;;;;;;;;;;;5070204;28;20398;-78
2023/07/09 00:48:35;;;;;;;;;;;;;;;;;;5051623;28;19967;-78
2023/07/09 00:51:01;;;;;;;;;;;;;;;;;;5053324;28;19927;-78
2023/07/09 00:53:27;;;;;;;;;;;;;;;;;;5049569;28;19921;-80
2023/07/09 00:55:53;;;;;;;;;;;;;;;;;;5049305;28;20015;-78
2023/07/09 00:58:19;;;;;;;;;;;;;;;;;;5049785;28;20292;-78
2023/07/09 01:00:48;;;;;;;;;;;;;;;;;;5033037;28;19953;-85
2023/07/09 01:03:16;;;;;;;;;;;;;;;;;;5049613;28;19928;-85
2023/07/09 01:05:43;;;;;;;;;;;;;;;;;;5052481;28;19920;-86
2023/07/09 01:08:09;;;;;;;;;;;;;;;;;;5069855;28;20479;-86
2023/07/09 01:10:35;;;;;;;;;;;;;;;;;;5052649;28;19925;-85
2023/07/09 01:13:01;;;;;;;;;;;;;;;;;;5049683;28;20011;-85
2023/07/09 01:15:27;;;;;;;;;;;;;;;;;;5049877;28;19928;-86
2023/07/09 01:17:53;;;;;;;;;;;;;;;;;;5048334;28;19932;-86
2023/07/09 01:20:20;;;;;;;;;;;;;;;;;;5050509;28;19928;-86
2023/07/09 01:22:48;;;;;;;;;;;;;;;;;;5052805;28;19921;-86
2023/07/09 01:25:14;;;;;;;;;;;;;;;;;;5052871;28;20378;-86
2023/07/09 01:27:40;;;;;;;;;;;;;;;;;;5054149;28;19929;-85
2023/07/09 01:30:06;;;;;;;;;;;;;;;;;;5036446;28;20379;-85
2023/07/09 01:32:33;;;;;;;;;;;;;;;;;;5052846;28;19931;-84
2023/07/09 01:35:04;;;;;;;;;;;;;;;;;;5049548;28;19932;-85
2023/07/09 01:37:30;;;;;;;;;;;;;;;;;;5053470;28;19931;-86
2023/07/09 01:39:56;;;;;;;;;;;;;;;;;;5052413;28;20191;-86
2023/07/09 01:42:22;;;;;;;;;;;;;;;;;;5053424;28;19924;-86
2023/07/09 01:44:49;;;;;;;;;;;;;;;;;;5052140;28;19924;-85
2023/07/09 01:47:15;;;;;;;;;;;;;;;;;;5053701;28;19925;-85
2023/07/09 01:49:41;;;;;;;;;;;;;;;;;;5070292;28;19920;-84
2023/07/09 01:52:08;;;;;;;;;;;;;;;;;;5071873;28;20258;-86
2023/07/09 01:54:37;;;;;;;;;;;;;;;;;;5055614;28;19921;-84
2023/07/09 01:57:03;;;;;;;;;;;;;;;;;;5056063;28;19986;-85
2023/07/09 01:59:29;;;;;;;;;;;;;;;;;;5055933;28;19986;-85
2023/07/09 02:01:57;;;;;;;;;;;;;;;;;;5072450;28;19927;-85
2023/07/09 02:04:27;;;;;;;;;;;;;;;;;;5058449;28;19921;-85
2023/07/09 02:06:53;;;;;;;;;;;;;;;;;;5052323;28;19921;-85
2023/07/09 02:09:19;;;;;;;;;;;;;;;;;;5067086;28;19924;-84
2023/07/09 02:11:44;;;;;;;;;;;;;;;;;;5055195;28;19927;-86
2023/07/09 02:14:10;;;;;;;;;;;;;;;;;;5071990;28;19960;-86
2023/07/09 02:16:36;;;;;;;;;;;;;;;;;;5055674;28;19920;-85
2023/07/09 02:19:02;;;;;;;;;;;;;;;;;;5055069;28;19920;-86
2023/07/09 02:21:29;;;;;;;;;;;;;;;;;;5055551;28;19924;-85
2023/07/09 02:23:55;;;;;;;;;;;;;;;;;;5064165;28;20591;-85
2023/07/09 02:26:21;;;;;;;;;;;;;;;;;;5052100;28;19975;-85
2023/07/09 02:28:47;;;;;;;;;;;;;;;;;;5054159;28;20254;-86
2023/07/09 02:31:15;;;;;;;;;;;;;;;;;;5055742;28;19924;-86
2023/07/09 02:33:41;;;;;;;;;;;;;;;;;;5070235;28;20426;-85
2023/07/09 02:36:07;;;;;;;;;;;;;;;;;;5052350;28;19920;-86
2023/07/09 02:38:33;;;;;;;;;;;;;;;;;;5051850;28;19970;-86
2023/07/09 02:40:59;;;;;;;;;;;;;;;;;;5058435;28;19925;-85
2023/07/09 02:43:25;;;;;;;;;;;;;;;;;;5051737;28;20408;-86
2023/07/09 02:45:51;;;;;;;;;;;;;;;;;;5051729;28;20035;-85
2023/07/09 02:48:17;;;;;;;;;;;;;;;;;;5051110;28;19920;-85
2023/07/09 02:50:43;;;;;;;;;;;;;;;;;;5061786;28;19920;-85
2023/07/09 02:53:09;;;;;;;;;;;;;;;;;;5057495;28;19967;-86
2023/07/09 02:55:35;;;;;;;;;;;;;;;;;;5074361;28;19927;-85
2023/07/09 02:58:01;;;;;;;;;;;;;;;;;;5058182;28;19931;-86
2023/07/09 03:00:28;;;;;;;;;;;;;;;;;;5074989;28;19920;-86
2023/07/09 03:02:54;;;;;;;;;;;;;;;;;;5085247;28;19935;-86
2023/07/09 03:05:20;;;;;;;;;;;;;;;;;;5058137;28;19921;-86
2023/07/09 03:07:46;;;;;;;;;;;;;;;;;;5050782;28;19970;-86
2023/07/09 03:10:12;;;;;;;;;;;;;;;;;;5034452;28;19920;-87
2023/07/09 03:12:38;;;;;;;;;;;;;;;;;;5051389;28;19928;-86
2023/07/09 03:15:03;;;;;;;;;;;;;;;;;;5051061;28;20374;-85
2023/07/09 03:17:30;;;;;;;;;;;;;;;;;;5035151;28;20369;-87
2023/07/09 03:19:56;;;;;;;;;;;;;;;;;;5034259;28;19971;-86
2023/07/09 03:22:21;;;;;;;;;;;;;;;;;;5069151;28;20396;-85
2023/07/09 03:24:47;;;;;;;;;;;;;;;;;;5070482;28;19980;-87
2023/07/09 03:27:13;;;;;;;;;;;;;;;;;;5051126;28;19932;-86
2023/07/09 03:29:39;;;;;;;;;;;;;;;;;;5050790;28;19925;-86
2023/07/09 03:32:05;;;;;;;;;;;;;;;;;;5051041;28;20013;-86
2023/07/09 03:34:31;;;;;;;;;;;;;;;;;;5033973;28;19927;-86
2023/07/09 03:36:57;;;;;;;;;;;;;;;;;;5036093;28;20334;-86
2023/07/09 03:39:23;;;;;;;;;;;;;;;;;;5051111;28;19928;-86
2023/07/09 03:41:49;;;;;;;;;;;;;;;;;;5050306;28;19979;-86
2023/07/09 03:44:15;;;;;;;;;;;;;;;;;;5049723;28;19921;-86
2023/07/09 03:46:41;;;;;;;;;;;;;;;;;;5050976;28;20365;-86
2023/07/09 03:49:07;;;;;;;;;;;;;;;;;;5049526;28;19921;-86
2023/07/09 03:51:33;;;;;;;;;;;;;;;;;;5057891;28;20365;-86
2023/07/09 03:53:59;;;;;;;;;;;;;;;;;;5050463;28;19931;-86
2023/07/09 03:56:25;;;;;;;;;;;;;;;;;;5050431;28;19928;-86
2023/07/09 03:58:51;;;;;;;;;;;;;;;;;;5053404;28;19989;-86
2023/07/09 04:01:17;;;;;;;;;;;;;;;;;;5054354;28;19921;-85
2023/07/09 04:03:43;;;;;;;;;;;;;;;;;;5053436;28;19927;-86
2023/07/09 04:06:09;;;;;;;;;;;;;;;;;;5070135;28;20019;-85
2023/07/09 04:08:35;;;;;;;;;;;;;;;;;;5053733;28;20007;-86
2023/07/09 04:11:01;;;;;;;;;;;;;;;;;;5049343;28;19942;-86
2023/07/09 04:13:27;;;;;;;;;;;;;;;;;;5059832;28;19920;-85
2023/07/09 04:15:53;;;;;;;;;;;;;;;;;;5053625;28;20384;-86
2023/07/09 04:18:19;;;;;;;;;;;;;;;;;;5069800;28;19924;-85
2023/07/09 04:20:45;;;;;;;;;;;;;;;;;;5053787;28;19924;-85
2023/07/09 04:23:11;;;;;;;;;;;;;;;;;;5052928;28;19920;-86
2023/07/09 04:25:37;;;;;;;;;;;;;;;;;;5053495;28;19931;-86
2023/07/09 04:28:03;;;;;;;;;;;;;;;;;;5052984;28;19931;-86
2023/07/09 04:30:29;;;;;;;;;;;;;;;;;;5053040;28;19924;-85
2023/07/09 04:32:55;;;;;;;;;;;;;;;;;;5052308;28;20447;-86
2023/07/09 04:35:21;;;;;;;;;;;;;;;;;;5050553;28;19962;-84
2023/07/09 04:37:47;;;;;;;;;;;;;;;;;;5049972;28;19967;-78
2023/07/09 04:40:13;;;;;;;;;;;;;;;;;;5050892;28;20019;-79
2023/07/09 04:42:39;;;;;;;;;;;;;;;;;;5070133;28;20019;-81
2023/07/09 04:45:05;;;;;;;;;;;;;;;;;;5069490;28;19924;-80
2023/07/09 04:47:31;;;;;;;;;;;;;;;;;;5053490;28;19931;-81
2023/07/09 04:49:57;;;;;;;;;;;;;;;;;;5068322;28;19930;-80
2023/07/09 04:52:23;;;;;;;;;;;;;;;;;;5050132;28;20422;-81
2023/07/09 04:54:50;;;;;;;;;;;;;;;;;;5032517;28;19978;-81
2023/07/09 04:57:16;;;;;;;;;;;;;;;;;;5070455;28;19925;-81
2023/07/09 04:59:42;;;;;;;;;;;;;;;;;;5057056;28;19967;-81
2023/07/09 05:02:08;;;;;;;;;;;;;;;;;;5055866;28;19979;-80
2023/07/09 05:04:34;;;;;;;;;;;;;;;;;;5052884;28;20388;-81
2023/07/09 05:07:00;;;;;;;;;;;;;;;;;;5056563;28;19924;-80
2023/07/09 05:09:26;;;;;;;;;;;;;;;;;;5056918;28;19931;-81
2023/07/09 05:11:52;;;;;;;;;;;;;;;;;;5056081;28;20010;-81
2023/07/09 05:14:18;;;;;;;;;;;;;;;;;;5056640;28;19925;-81
2023/07/09 05:16:44;;;;;;;;;;;;;;;;;;5057113;28;19931;-81
2023/07/09 05:19:10;;;;;;;;;;;;;;;;;;5055374;28;20011;-81
2023/07/09 05:21:35;;;;;;;;;;;;;;;;;;5072704;28;19925;-81
2023/07/09 05:24:01;;;;;;;;;;;;;;;;;;5055785;28;19924;-81
2023/07/09 05:26:27;;;;;;;;;;;;;;;;;;5060832;28;19948;-81
2023/07/09 05:28:53;;;;;;;;;;;;;;;;;;5061180;28;19924;-81
2023/07/09 05:31:19;;;;;;;;;;;;;;;;;;5073507;28;19929;-81
2023/07/09 05:33:45;;;;;;;;;;;;;;;;;;5072581;28;19931;-81
2023/07/09 05:36:15;;;;;;;;;;;;;;;;;;5072882;28;19928;-81
2023/07/09 05:38:41;;;;;;;;;;;;;;;;;;5055863;28;20297;-81
2023/07/09 05:41:07;;;;;;;;;;;;;;;;;;5070432;28;19927;-81
2023/07/09 05:43:33;;;;;;;;;;;;;;;;;;5057370;28;20280;-81
2023/07/09 05:45:59;;;;;;;;;;;;;;;;;;5072669;28;20011;-81
2023/07/09 05:48:25;;;;;;;;;;;;;;;;;;5072174;28;19982;-81
2023/07/09 05:50:51;;;;;;;;;;;;;;;;;;5072772;28;20292;-81
2023/07/09 05:53:17;;;;;;;;;;;;;;;;;;5060514;28;19928;-81
2023/07/09 05:55:43;;;;;;;;;;;;;;;;;;5052205;28;19921;-81
2023/07/09 05:58:09;;;;;;;;;;;;;;;;;;5052234;28;20508;-81
2023/07/09 06:00:37;;;;;;;;;;;;;;;;;;5055464;28;19920;-81
2023/07/09 06:03:07;;;;;;;;;;;;;;;;;;5071672;28;19940;-81
2023/07/09 06:05:33;;;;;;;;;;;;;;;;;;5052728;28;20444;-81
2023/07/09 06:07:59;;;;;;;;;;;;;;;;;;5051224;28;19924;-81
2023/07/09 06:10:25;;;;;;;;;;;;;;;;;;5055101;28;19924;-81
2023/07/09 06:12:51;;;;;;;;;;;;;;;;;;5072198;28;20364;-81
2023/07/09 06:15:17;;;;;;;;;;;;;;;;;;5055581;28;19932;-81
2023/07/09 06:17:43;;;;;;;;;;;;;;;;;;5054818;28;19920;-81
2023/07/09 06:20:09;;;;;;;;;;;;;;;;;;5051961;28;19982;-81
2023/07/09 06:22:35;;;;;;;;;;;;;;;;;;5046568;28;19925;-81
2023/07/09 06:25:01;;;;;;;;;;;;;;;;;;5051387;28;19924;-81
2023/07/09 06:27:26;;;;;;;;;;;;;;;;;;5052469;28;19943;-82
2023/07/09 06:29:53;;;;;;;;;;;;;;;;;;5069138;28;20384;-81
2023/07/09 06:32:18;;;;;;;;;;;;;;;;;;5055230;28;20293;-81
2023/07/09 06:34:44;;;;;;;;;;;;;;;;;;5059960;28;19921;-81
2023/07/09 06:37:10;;;;;;;;;;;;;;;;;;5071739;28;19920;-81
2023/07/09 06:39:36;;;;;;;;;;;;;;;;;;5055122;28;19928;-81
2023/07/09 06:42:02;;;;;;;;;;;;;;;;;;5071001;28;20018;-81
2023/07/09 06:44:28;;;;;;;;;;;;;;;;;;5069626;28;19934;-81
2023/07/09 06:46:54;;;;;;;;;;;;;;;;;;5072144;28;19920;-81
2023/07/09 06:49:20;;;;;;;;;;;;;;;;;;5070341;28;19924;-81
2023/07/09 06:51:46;;;;;;;;;;;;;;;;;;5061713;28;20370;-81
2023/07/09 06:54:12;;;;;;;;;;;;;;;;;;5051217;28;19931;-81
2023/07/09 06:56:38;;;;;;;;;;;;;;;;;;5054584;28;19924;-81
2023/07/09 06:59:04;;;;;;;;;;;;;;;;;;5071049;28;19924;-81
2023/07/09 07:01:30;;;;;;;;;;;;;;;;;;5071252;28;19924;-81
2023/07/09 07:03:56;;;;;;;;;;;;;;;;;;5064528;28;19927;-81
2023/07/09 07:06:22;;;;;;;;;;;;;;;;;;5070841;28;19925;-68
2023/07/09 07:08:49;;;;;;;;;;;;;;;;;;5071784;28;19931;-72
2023/07/09 07:11:15;;;;;;;;;;;;;;;;;;5071033;28;19920;-68
2023/07/09 07:13:41;;;;;;;;;;;;;;;;;;5072148;28;19928;-76
2023/07/09 07:16:07;;;;;;;;;;;;;;;;;;5071972;28;20301;-68
2023/07/09 07:18:33;;;;;;;;;;;;;;;;;;5071292;28;19927;-74
2023/07/09 07:20:59;;;;;;;;;;;;;;;;;;5072272;28;20349;-75
2023/07/09 07:23:25;;;;;;;;;;;;;;;;;;5053558;28;19920;-82
2023/07/09 07:25:51;;;;;;;;;;;;;;;;;;5054166;28;19920;-81
2023/07/09 07:28:17;;;;;;;;;;;;;;;;;;5066986;28;20335;-80
2023/07/09 07:30:43;;;;;;;;;;;;;;;;;;5054276;28;20015;-78
2023/07/09 07:33:09;;;;;;;;;;;;;;;;;;5053124;28;20073;-81
2023/07/09 07:35:36;;;;;;;;;;;;;;;;;;5071129;28;19966;-81
2023/07/09 07:38:02;;;;;;;;;;;;;;;;;;5054178;28;20049;-80
2023/07/09 07:40:28;;;;;;;;;;;;;;;;;;5070331;28;20518;-81
2023/07/09 07:42:54;;;;;;;;;;;;;;;;;;5070662;28;20447;-81
2023/07/09 07:45:19;;;;;;;;;;;;;;;;;;5070519;28;20261;-81
2023/07/09 07:47:45;;;;;;;;;;;;;;;;;;5053327;28;19920;-81
2023/07/09 07:50:11;;;;;;;;;;;;;;;;;;5068741;28;19924;-83
2023/07/09 07:52:37;;;;;;;;;;;;;;;;;;5070667;28;20011;-79
2023/07/09 07:55:03;;;;;;;;;;;;;;;;;;5067299;28;19978;-79
2023/07/09 07:57:29;;;;;;;;;;;;;;;;;;5070671;28;20335;-78
2023/07/09 07:59:55;;;;;;;;;;;;;;;;;;5070414;28;20246;-80
2023/07/09 08:02:21;;;;;;;;;;;;;;;;;;5069810;28;19920;-81
2023/07/09 08:04:47;;;;;;;;;;;;;;;;;;5069305;28;19974;-80
2023/07/09 08:07:13;;;;;;;;;;;;;;;;;;5049951;28;19924;-81
2023/07/09 08:09:39;;;;;;;;;;;;;;;;;;5049858;28;20408;-81
2023/07/09 08:12:09;;;;;;;;;;;;;;;;;;5050256;28;19927;-78
2023/07/09 08:14:35;;;;;;;;;;;;;;;;;;5050196;28;19970;-81
2023/07/09 08:17:01;;;;;;;;;;;;;;;;;;5037718;28;19967;-81
2023/07/09 08:19:27;;;;;;;;;;;;;;;;;;5068085;28;20264;-80
2023/07/09 08:21:53;;;;;;;;;;;;;;;;;;5069557;28;20370;-80
2023/07/09 08:24:19;;;;;;;;;;;;;;;;;;5069812;28;20362;-80
2023/07/09 08:26:45;;;;;;;;;;;;;;;;;;5070079;28;20392;-79
2023/07/09 08:29:11;;;;;;;;;;;;;;;;;;5068596;28;19947;-81
2023/07/09 08:31:37;;;;;;;;;;;;;;;;;;5069928;28;19978;-77
2023/07/09 08:34:03;;;;;;;;;;;;;;;;;;5052768;28;19924;-80
2023/07/09 08:36:29;;;;;;;;;;;;;;;;;;5052993;28;19935;-80
2023/07/09 08:38:55;;;;;;;;;;;;;;;;;;5052954;28;20361;-86
2023/07/09 08:41:21;;;;;;;;;;;;;;;;;;5052445;28;19920;-85
2023/07/09 08:43:47;;;;;;;;;;;;;;;;;;5061023;28;19921;-83
2023/07/09 08:46:13;;;;;;;;;;;;;;;;;;5074728;28;20324;-82
2023/07/09 08:48:39;;;;;;;;;;;;;;;;;;5059341;28;20293;-83
2023/07/09 08:51:05;;;;;;;;;;;;;;;;;;5075076;28;19920;-83
2023/07/09 08:53:31;;;;;;;;;;;;;;;;;;5078131;28;20017;-84
2023/07/09 08:55:57;;;;;;;;;;;;;;;;;;5081908;28;19932;-83
2023/07/09 08:58:23;;;;;;;;;;;;;;;;;;5086405;28;19931;-83
2023/07/09 09:00:49;;;;;;;;;;;;;;;;;;5072777;28;19974;-83
2023/07/09 09:03:15;;;;;;;;;;;;;;;;;;5077563;28;19928;-81
2023/07/09 09:05:41;;;;;;;;;;;;;;;;;;5082257;28;19924;-80
2023/07/09 09:08:07;;;;;;;;;;;;;;;;;;5061071;28;20250;-84
2023/07/09 09:10:33;;;;;;;;;;;;;;;;;;5071167;28;19930;-84
2023/07/09 09:12:59;;;;;;;;;;;;;;;;;;5088706;28;19996;-84
2023/07/09 09:15:25;;;;;;;;;;;;;;;;;;5071491;28;19931;-84
2023/07/09 09:17:51;;;;;;;;;;;;;;;;;;5088400;28;19931;-85
2023/07/09 09:20:17;;;;;;;;;;;;;;;;;;5059831;28;20303;-84
2023/07/09 09:22:43;;;;;;;;;;;;;;;;;;5078777;28;19931;-85
2023/07/09 09:25:09;;;;;;;;;;;;;;;;;;5071765;28;19924;-84
2023/07/09 09:27:34;;;;;;;;;;;;;;;;;;5080648;28;20008;-85
2023/07/09 09:30:01;;;;;;;;;;;;;;;;;;5053497;28;19925;-82
2023/07/09 09:32:27;;;;;;;;;;;;;;;;;;5065151;28;19931;-80
2023/07/09 09:34:53;;;;;;;;;;;;;;;;;;5072050;28;19930;-83
2023/07/09 09:37:18;;;;;;;;;;;;;;;;;;5087882;28;20376;-75
2023/07/09 09:39:44;;;;;;;;;;;;;;;;;;5088327;28;19931;-75
2023/07/09 09:42:10;;;;;;;;;;;;;;;;;;5090067;28;19924;-74
2023/07/09 09:44:36;;;;;;;;;;;;;;;;;;5090916;28;19975;-75
2023/07/09 09:47:02;;;;;;;;;;;;;;;;;;5093447;28;19974;-75
2023/07/09 09:49:28;;;;;;;;;;;;;;;;;;5074526;28;19923;-75
2023/07/09 09:51:56;;;;;;;;;;;;;;;;;;5080336;28;19924;-74
2023/07/09 09:54:22;;;;;;;;;;;;;;;;;;5072232;28;19927;-75
2023/07/09 09:56:48;;;;;;;;;;;;;;;;;;5092357;28;19920;-74
2023/07/09 09:59:13;;;;;;;;;;;;;;;;;;5066416;28;19961;-79
2023/07/09 10:01:39;;;;;;;;;;;;;;;;;;5075578;28;19923;-75
2023/07/09 10:04:05;;;;;;;;;;;;;;;;;;5079622;28;19920;-75
2023/07/09 10:06:31;;;;;;;;;;;;;;;;;;5075754;28;19921;-72
2023/07/09 10:08:57;;;;;;;;;;;;;;;;;;5061751;28;19928;-70
2023/07/09 10:11:23;;;;;;;;;;;;;;;;;;5074925;28;19934;-79
2023/07/09 10:13:49;;;;;;;;;;;;;;;;;;5064696;28;20015;-78
2023/07/09 10:16:15;;;;;;;;;;;;;;;;;;5060942;28;19920;-78
2023/07/09 10:18:42;;;;;;;;;;;;;;;;;;5079958;28;19921;-77
2023/07/09 10:21:08;;;;;;;;;;;;;;;;;;5078944;28;19920;-73
2023/07/09 10:23:34;;;;;;;;;;;;;;;;;;5092845;28;19920;-76
2023/07/09 10:26:00;;;;;;;;;;;;;;;;;;5089783;28;20443;-75
2023/07/09 10:28:26;;;;;;;;;;;;;;;;;;5063113;28;19974;-76
2023/07/09 10:30:52;;;;;;;;;;;;;;;;;;5092982;28;20374;-76
2023/07/09 10:33:18;;;;;;;;;;;;;;;;;;5077522;28;20440;-76
2023/07/09 10:35:44;;;;;;;;;;;;;;;;;;5080163;28;19924;-75
2023/07/09 10:38:10;;;;;;;;;;;;;;;;;;5081158;28;20001;-77
2023/07/09 10:40:36;;;;;;;;;;;;;;;;;;5090428;28;19924;-76
2023/07/09 10:43:02;;;;;;;;;;;;;;;;;;5090283;28;19920;-77
2023/07/09 10:45:28;;;;;;;;;;;;;;;;;;5072501;28;19927;-77
2023/07/09 10:47:54;;;;;;;;;;;;;;;;;;5086814;28;19924;-77
2023/07/09 10:50:20;;;;;;;;;;;;;;;;;;5092625;28;19924;-79
2023/07/09 10:52:46;;;;;;;;;;;;;;;;;;5090014;28;19920;-79
2023/07/09 10:55:12;;;;;;;;;;;;;;;;;;5077402;28;20432;-79
2023/07/09 10:57:38;;;;;;;;;;;;;;;;;;5085467;28;19969;-78
2023/07/09 11:00:03;;;;;;;;;;;;;;;;;;5080733;28;19972;-78
2023/07/09 11:02:29;;;;;;;;;;;;;;;;;;5092155;28;20058;-78
2023/07/09 11:04:55;;;;;;;;;;;;;;;;;;5090955;28;20341;-82
2023/07/09 11:07:21;;;;;;;;;;;;;;;;;;5091095;28;19924;-82
2023/07/09 11:09:49;;;;;;;;;;;;;;;;;;5073476;28;19926;-82
2023/07/09 11:12:15;;;;;;;;;;;;;;;;;;5074741;28;19931;-81
2023/07/09 11:14:41;;;;;;;;;;;;;;;;;;5074094;28;20290;-81
2023/07/09 11:17:07;;;;;;;;;;;;;;;;;;5080887;28;19995;-78
2023/07/09 11:19:34;;;;;;;;;;;;;;;;;;5070685;28;19998;-78
2023/07/09 11:22:00;;;;;;;;;;;;;;;;;;5068863;28;20003;-82
2023/07/09 11:24:26;;;;;;;;;;;;;;;;;;5070648;28;19999;-79
2023/07/09 11:26:52;;;;;;;;;;;;;;;;;;5070656;28;19920;-79
2023/07/09 11:29:18;;;;;;;;;;;;;;;;;;5067440;28;20339;-79
2023/07/09 11:31:47;;;;;;;;;;;;;;;;;;5050737;28;20163;-79
2023/07/09 11:34:13;;;;;;;;;;;;;;;;;;5051817;28;20338;-79
2023/07/09 11:36:39;;;;;;;;;;;;;;;;;;5068481;28;20313;-79
2023/07/09 11:39:05;;;;;;;;;;;;;;;;;;5067386;28;19924;-79
2023/07/09 11:41:31;;;;;;;;;;;;;;;;;;5053174;28;20391;-79
2023/07/09 11:43:57;;;;;;;;;;;;;;;;;;5070709;28;20395;-80
2023/07/09 11:46:23;;;;;;;;;;;;;;;;;;5070929;28;19924;-80
2023/07/09 11:48:49;;;;;;;;;;;;;;;;;;5069089;28;19920;-79
2023/07/09 11:51:15;;;;;;;;;;;;;;;;;;5070916;28;19920;-80
2023/07/09 11:53:42;;;;;;;;;;;;;;;;;;5070346;28;19938;-80
2023/07/09 11:56:08;;;;;;;;;;;;;;;;;;5070766;28;19924;-80
2023/07/09 11:58:33;;;;;;;;;;;;;;;;;;5069337;28;20377;-80
2023/07/09 12:00:59;;;;;;;;;;;;;;;;;;5070402;28;20297;-81
2023/07/09 12:03:25;;;;;;;;;;;;;;;;;;5053087;28;19989;-81
2023/07/09 12:05:52;;;;;;;;;;;;;;;;;;5052769;28;19971;-81
2023/07/09 12:08:18;;;;;;;;;;;;;;;;;;5070445;28;19975;-81
2023/07/09 12:10:43;;;;;;;;;;;;;;;;;;5069700;28;19931;-81
2023/07/09 12:13:09;;;;;;;;;;;;;;;;;;5070239;28;19985;-81
2023/07/09 12:15:35;;;;;;;;;;;;;;;;;;5068427;28;19924;-81
2023/07/09 12:18:02;;;;;;;;;;;;;;;;;;5069559;28;19931;-81
2023/07/09 12:20:28;;;;;;;;;;;;;;;;;;5062552;28;20377;-80
2023/07/09 12:22:54;;;;;;;;;;;;;;;;;;5064878;28;19931;-81
2023/07/09 12:25:20;;;;;;;;;;;;;;;;;;5080153;28;20433;-82
2023/07/09 12:27:46;;;;;;;;;;;;;;;;;;5070182;28;19924;-81
2023/07/09 12:30:12;;;;;;;;;;;;;;;;;;5065848;28;19925;-81
2023/07/09 12:32:38;;;;;;;;;;;;;;;;;;5080565;28;20014;-81
2023/07/09 12:35:04;;;;;;;;;;;;;;;;;;5089618;28;19934;-81
2023/07/09 12:37:30;;;;;;;;;;;;;;;;;;5070849;28;20388;-81
2023/07/09 12:39:56;;;;;;;;;;;;;;;;;;5077147;28;20016;-81
2023/07/09 12:42:22;;;;;;;;;;;;;;;;;;5089655;28;19931;-81
2023/07/09 12:44:49;;;;;;;;;;;;;;;;;;5065068;28;19924;-81
2023/07/09 12:47:15;;;;;;;;;;;;;;;;;;5087744;28;19963;-81
2023/07/09 12:49:41;;;;;;;;;;;;;;;;;;5075317;28;20017;-81
2023/07/09 12:52:07;;;;;;;;;;;;;;;;;;5070977;28;19928;-81
2023/07/09 12:54:33;;;;;;;;;;;;;;;;;;5072680;28;19989;-81
2023/07/09 12:56:59;;;;;;;;;;;;;;;;;;5070606;28;20010;-83
2023/07/09 12:59:25;;;;;;;;;;;;;;;;;;5063903;28;19920;-87
2023/07/09 13:01:51;;;;;;;;;;;;;;;;;;5085234;28;19927;-88
2023/07/09 13:04:17;;;;;;;;;;;;;;;;;;5080060;28;20011;-81
2023/07/09 13:06:43;;;;;;;;;;;;;;;;;;5075953;28;19920;-84
2023/07/09 13:09:09;;;;;;;;;;;;;;;;;;5078250;28;19925;-84
2023/07/09 13:11:36;;;;;;;;;;;;;;;;;;5087487;28;19926;-81
2023/07/09 13:14:02;;;;;;;;;;;;;;;;;;5067953;28;20015;-83
2023/07/09 13:16:28;;;;;;;;;;;;;;;;;;5084114;28;20010;-83
2023/07/09 13:18:54;;;;;;;;;;;;;;;;;;5092525;28;19924;-76
2023/07/09 13:21:20;;;;;;;;;;;;;;;;;;5092957;28;19939;-70
2023/07/09 13:23:46;;;;;;;;;;;;;;;;;;5085542;28;19931;-82
2023/07/09 13:26:12;;;;;;;;;;;;;;;;;;5088049;28;19923;-82
2023/07/09 13:28:39;;;;;;;;;;;;;;;;;;5084469;28;19961;-81
2023/07/09 13:31:05;;;;;;;;;;;;;;;;;;5070167;28;20265;-82
2023/07/09 13:33:31;;;;;;;;;;;;;;;;;;5075296;28;20011;-83
2023/07/09 13:35:57;;;;;;;;;;;;;;;;;;5091074;28;20043;-83
2023/07/09 13:38:23;;;;;;;;;;;;;;;;;;5092218;28;19969;-83
2023/07/09 13:40:49;;;;;;;;;;;;;;;;;;5091662;28;19943;-82
2023/07/09 13:43:15;;;;;;;;;;;;;;;;;;5081388;28;20335;-82
2023/07/09 13:45:41;;;;;;;;;;;;;;;;;;5079942;28;19927;-81
2023/07/09 13:48:07;;;;;;;;;;;;;;;;;;5075164;28;19920;-83
2023/07/09 13:50:33;;;;;;;;;;;;;;;;;;5092016;28;19924;-83
2023/07/09 13:52:59;;;;;;;;;;;;;;;;;;5091988;28;20498;-83
2023/07/09 13:55:25;;;;;;;;;;;;;;;;;;5091669;28;19920;-83
2023/07/09 13:57:52;;;;;;;;;;;;;;;;;;5075394;28;19920;-84
2023/07/09 14:00:18;;;;;;;;;;;;;;;;;;5075688;28;20370;-84
2023/07/09 14:02:44;;;;;;;;;;;;;;;;;;5078627;28;19921;-83
2023/07/09 14:05:10;;;;;;;;;;;;;;;;;;5078277;28;20026;-83
2023/07/09 14:07:36;;;;;;;;;;;;;;;;;;5087874;28;19923;-83
2023/07/09 14:10:02;;;;;;;;;;;;;;;;;;5061384;28;19993;-83
2023/07/09 14:12:28;;;;;;;;;;;;;;;;;;5079059;28;19924;-82
2023/07/09 14:14:54;;;;;;;;;;;;;;;;;;5063580;28;19930;-83
2023/07/09 14:17:23;;;;;;;;;;;;;;;;;;5092730;28;19936;-83
2023/07/09 14:19:50;;;;;;;;;;;;;;;;;;5073769;28;19920;-82
2023/07/09 14:22:16;;;;;;;;;;;;;;;;;;5092337;28;19924;-83
2023/07/09 14:24:42;;;;;;;;;;;;;;;;;;5057652;28;20007;-81
2023/07/09 14:27:08;;;;;;;;;;;;;;;;;;5067200;28;19932;-84
2023/07/09 14:29:34;;;;;;;;;;;;;;;;;;5078426;28;19950;-83
2023/07/09 14:32:00;;;;;;;;;;;;;;;;;;5090772;28;20027;-83
2023/07/09 14:34:26;;;;;;;;;;;;;;;;;;5091501;28;19924;-84
2023/07/09 14:36:52;;;;;;;;;;;;;;;;;;5074299;28;19974;-78
2023/07/09 14:39:18;;;;;;;;;;;;;;;;;;5074922;28;19924;-81
2023/07/09 14:41:44;;;;;;;;;;;;;;;;;;5089345;28;20384;-80
2023/07/09 14:44:10;;;;;;;;;;;;;;;;;;5070335;28;19928;-82
2023/07/09 14:46:36;;;;;;;;;;;;;;;;;;5071794;28;19967;-82
2023/07/09 14:49:02;;;;;;;;;;;;;;;;;;5066462;28;19932;-83
2023/07/09 14:51:28;;;;;;;;;;;;;;;;;;5084377;28;19924;-82
2023/07/09 14:53:53;;;;;;;;;;;;;;;;;;5090704;28;19924;-83
2023/07/09 14:56:19;;;;;;;;;;;;;;;;;;5091770;28;20385;-83
2023/07/09 14:58:45;;;;;;;;;;;;;;;;;;5090848;28;19977;-80
2023/07/09 15:01:11;;;;;;;;;;;;;;;;;;5092002;28;19923;-83
2023/07/09 15:03:37;;;;;;;;;;;;;;;;;;5074571;28;20331;-84
2023/07/09 15:06:03;;;;;;;;;;;;;;;;;;5066421;28;19924;-82
2023/07/09 15:08:29;;;;;;;;;;;;;;;;;;5071176;28;19928;-82
2023/07/09 15:10:55;;;;;;;;;;;;;;;;;;5071312;28;20392;-83
2023/07/09 15:13:21;;;;;;;;;;;;;;;;;;5078470;28;19947;-83
2023/07/09 15:15:48;;;;;;;;;;;;;;;;;;5074481;28;20407;-81
2023/07/09 15:18:14;;;;;;;;;;;;;;;;;;5090858;28;19928;-83
2023/07/09 15:20:40;;;;;;;;;;;;;;;;;;5074395;28;19935;-83
2023/07/09 15:23:07;;;;;;;;;;;;;;;;;;5073552;28;19924;-83
2023/07/09 15:25:33;;;;;;;;;;;;;;;;;;5059287;28;19970;-83
2023/07/09 15:27:59;;;;;;;;;;;;;;;;;;5070122;28;19928;-83
2023/07/09 15:30:25;;;;;;;;;;;;;;;;;;5070495;28;19921;-83
2023/07/09 15:32:51;;;;;;;;;;;;;;;;;;5053296;28;19920;-83
2023/07/09 15:35:17;;;;;;;;;;;;;;;;;;5085050;28;19920;-83
2023/07/09 15:37:43;;;;;;;;;;;;;;;;;;5091255;28;19920;-83
2023/07/09 15:40:09;;;;;;;;;;;;;;;;;;5072945;28;20176;-83
2023/07/09 15:42:35;;;;;;;;;;;;;;;;;;5090814;28;19920;-82
2023/07/09 15:45:01;;;;;;;;;;;;;;;;;;5073366;28;19920;-81
2023/07/09 15:47:28;;;;;;;;;;;;;;;;;;5054375;28;20353;-83
2023/07/09 15:49:54;;;;;;;;;;;;;;;;;;5068077;28;19924;-82
2023/07/09 15:52:20;;;;;;;;;;;;;;;;;;5070760;28;19928;-81
2023/07/09 15:54:46;;;;;;;;;;;;;;;;;;5056631;28;19924;-82
2023/07/09 15:57:12;;;;;;;;;;;;;;;;;;5089958;28;19919;-80
2023/07/09 15:59:38;;;;;;;;;;;;;;;;;;5090262;28;19933;-82
2023/07/09 16:02:04;;;;;;;;;;;;;;;;;;5090341;28;19924;-82
2023/07/09 16:04:30;;;;;;;;;;;;;;;;;;5089297;28;20020;-81
2023/07/09 16:06:56;;;;;;;;;;;;;;;;;;5073099;28;19927;-82
2023/07/09 16:09:22;;;;;;;;;;;;;;;;;;5065917;28;19932;-78
2023/07/09 16:11:48;;;;;;;;;;;;;;;;;;5082370;28;19924;-84
2023/07/09 16:14:14;;;;;;;;;;;;;;;;;;5065969;28;19935;-80
2023/07/09 16:16:39;;;;;;;;;;;;;;;;;;5090527;28;20390;-81
2023/07/09 16:19:05;;;;;;;;;;;;;;;;;;5089082;28;20280;-80
2023/07/09 16:21:32;;;;;;;;;;;;;;;;;;5089512;28;19924;-81
2023/07/09 16:23:59;;;;;;;;;;;;;;;;;;5089505;28;19924;-79
2023/07/09 16:26:25;;;;;;;;;;;;;;;;;;5087526;28;20010;-80
2023/07/09 16:28:51;;;;;;;;;;;;;;;;;;5069656;28;20007;-87
2023/07/09 16:31:17;;;;;;;;;;;;;;;;;;5071016;28;19927;-90
2023/07/09 16:33:42;;;;;;;;;;;;;;;;;;5070465;28;19920;-90
2023/07/09 16:36:08;;;;;;;;;;;;;;;;;;5053801;28;20007;-90
2023/07/09 16:38:35;;;;;;;;;;;;;;;;;;5069853;28;19985;-85